^^
Station Historical Data
Daily Summary for February 14, 2017 Units:  English    Metric   Both
« Previous Day
Next Day »
Daily Weekly Monthly Yearly Custom
  High: Low: Average:
Temperature: 43.6 °F 25.1 °F 32.7 °F
Dew Point: 27.5 °F 18.5 °F 22.9 °F
Humidity: 83 % 51 % 68 %
Wind Speed: 9.3 mph 0.0 mph 1.9 mph
Wind Gust: 12.7 mph - -
Wind:- - WSW
Pressure: 30.04 in 29.71 in -
Precipitation: 0.00 in    
Historical Graphs
 
 
Tabular Data for February 14, 2017
Time Temperature Dew Point Pressure Wind Wind Speed Wind Gust Humidity Rainfall Rate (Hourly) solar Conditions
00:03 30.2 °F 19.8 °F 30.04 in NNW 5.0 mph 9.2 mph 65 % 0.00 in 0.0 W/m2 CLR
00:08 30.1 °F 19.7 °F 30.04 in NNW 4.6 mph 9.0 mph 65 % 0.00 in 0.0 W/m2 CLR
00:13 30.1 °F 19.7 °F 30.04 in NW 4.7 mph 8.1 mph 65 % 0.00 in 0.0 W/m2 CLR
00:18 30.0 °F 19.7 °F 30.04 in NW 3.2 mph 4.6 mph 65 % 0.00 in 0.0 W/m2 CLR
00:23 29.9 °F 19.6 °F 30.04 in WNW 3.9 mph 7.0 mph 65 % 0.00 in 0.0 W/m2 CLR
00:28 29.9 °F 19.9 °F 30.04 in NW 4.6 mph 5.8 mph 66 % 0.00 in 0.0 W/m2 CLR
00:33 30.0 °F 19.7 °F 30.04 in NW 4.0 mph 5.8 mph 65 % 0.00 in 0.0 W/m2 CLR
00:38 30.0 °F 19.7 °F 30.04 in NW 3.9 mph 5.0 mph 65 % 0.00 in 0.0 W/m2 CLR
00:43 29.9 °F 19.6 °F 30.04 in WNW 4.3 mph 4.6 mph 65 % 0.00 in 0.0 W/m2 CLR
00:48 29.9 °F 19.9 °F 30.04 in NW 3.1 mph 6.9 mph 66 % 0.00 in 0.0 W/m2 CLR
00:53 29.8 °F 19.8 °F 30.03 in NW 1.9 mph 3.5 mph 66 % 0.00 in 0.0 W/m2 CLR
00:58 29.6 °F 19.6 °F 30.02 in NW 1.4 mph 3.5 mph 66 % 0.00 in 0.0 W/m2 CLR
01:03 29.6 °F 19.6 °F 30.02 in NW 1.8 mph 3.5 mph 66 % 0.00 in 0.0 W/m2 CLR
01:08 29.5 °F 19.5 °F 30.02 in Calm     66 % 0.00 in 0.0 W/m2 CLR
01:13 29.4 °F 19.4 °F 30.02 in Calm     66 % 0.00 in 0.0 W/m2 CLR
01:18 29.3 °F 19.7 °F 30.02 in Calm     67 % 0.00 in 0.0 W/m2 CLR
01:23 29.2 °F 19.6 °F 30.02 in Calm     67 % 0.00 in 0.0 W/m2 CLR
01:28 28.6 °F 19.0 °F 30.02 in Calm     67 % 0.00 in 0.0 W/m2 CLR
01:33 28.4 °F 19.2 °F 30.03 in Calm     68 % 0.00 in 0.0 W/m2 CLR
01:38 28.4 °F 19.2 °F 30.02 in Calm     68 % 0.00 in 0.0 W/m2 CLR
01:43 27.9 °F 19.0 °F 30.02 in Calm     69 % 0.00 in 0.0 W/m2 CLR
01:48 27.6 °F 19.1 °F 30.02 in Calm     70 % 0.00 in 0.0 W/m2 CLR
01:53 27.8 °F 19.3 °F 30.02 in Calm     70 % 0.00 in 0.0 W/m2 CLR
01:58 27.8 °F 19.6 °F 30.02 in NW 0.2 mph 1.0 mph 71 % 0.00 in 0.0 W/m2 CLR
02:04 27.7 °F 19.2 °F 30.02 in Calm     70 % 0.00 in 0.0 W/m2 CLR
02:09 27.7 °F 19.5 °F 30.01 in Calm   1.2 mph 71 % 0.00 in 0.0 W/m2 CLR
02:14 27.6 °F 19.4 °F 30.01 in Calm     71 % 0.00 in 0.0 W/m2 CLR
02:19 26.9 °F 18.7 °F 30.01 in Calm     71 % 0.00 in 0.0 W/m2 CLR
02:24 26.6 °F 18.8 °F 30.01 in Calm     72 % 0.00 in 0.0 W/m2 CLR
02:29 27.1 °F 19.6 °F 30.01 in NW 1.0 mph 2.3 mph 73 % 0.00 in 0.0 W/m2 CLR
02:34 27.4 °F 19.6 °F 30.02 in Calm     72 % 0.00 in 0.0 W/m2 CLR
02:39 27.5 °F 19.7 °F 30.02 in NW 1.2 mph 2.3 mph 72 % 0.00 in 0.0 W/m2 CLR
02:44 27.3 °F 19.1 °F 30.01 in NW 2.2 mph 3.5 mph 71 % 0.00 in 0.0 W/m2 CLR
02:49 27.0 °F 19.2 °F 30.01 in NW 0.8 mph 2.3 mph 72 % 0.00 in 0.0 W/m2 CLR
02:54 27.1 °F 19.3 °F 30.01 in NW 1.3 mph 3.5 mph 72 % 0.00 in 0.0 W/m2 CLR
02:59 27.3 °F 19.5 °F 30.01 in NW 0.4 mph 2.0 mph 72 % 0.00 in 0.0 W/m2 CLR
03:04 27.5 °F 19.7 °F 30.01 in Calm     72 % 0.00 in 0.0 W/m2 CLR
03:09 27.3 °F 19.5 °F 30.01 in NW 0.3 mph 2.0 mph 72 % 0.00 in 0.0 W/m2 CLR
03:14 26.9 °F 19.1 °F 30.01 in NW 1.1 mph 2.3 mph 72 % 0.00 in 0.0 W/m2 CLR
03:19 26.9 °F 19.4 °F 30.00 in NW 0.1 mph 1.2 mph 73 % 0.00 in 0.0 W/m2 CLR
03:24 26.8 °F 19.3 °F 30.00 in Calm     73 % 0.00 in 0.0 W/m2 CLR
03:29 26.4 °F 18.9 °F 30.01 in Calm     73 % 0.00 in 0.0 W/m2 CLR
03:34 26.2 °F 18.7 °F 30.01 in Calm     73 % 0.00 in 0.0 W/m2 CLR
03:39 26.3 °F 18.8 °F 30.00 in NW 0.3 mph 2.3 mph 73 % 0.00 in 0.0 W/m2 CLR
03:44 26.3 °F 19.1 °F 30.01 in Calm     74 % 0.00 in 0.0 W/m2 CLR
03:49 26.1 °F 18.9 °F 30.01 in Calm     74 % 0.00 in 0.0 W/m2 CLR
03:54 25.6 °F 18.5 °F 30.01 in NW 1.4 mph 2.3 mph 74 % 0.00 in 0.0 W/m2 CLR
03:59 25.3 °F 18.5 °F 30.01 in Calm   2.3 mph 75 % 0.00 in 0.0 W/m2 CLR
04:04 25.4 °F 18.6 °F 30.00 in NW 1.0 mph 1.2 mph 75 % 0.00 in 0.0 W/m2 CLR
04:09 25.7 °F 18.9 °F 30.00 in NW 1.1 mph 2.3 mph 75 % 0.00 in 0.0 W/m2 CLR
04:14 25.8 °F 19.3 °F 30.00 in WNW 1.4 mph 2.3 mph 76 % 0.00 in 0.0 W/m2 CLR
04:19 25.8 °F 19.3 °F 30.00 in WNW 1.0 mph 3.5 mph 76 % 0.00 in 0.0 W/m2 CLR
04:24 25.9 °F 19.4 °F 30.00 in West 1.6 mph 4.6 mph 76 % 0.00 in 0.0 W/m2 CLR
04:29 26.1 °F 19.3 °F 30.00 in West 2.2 mph 3.5 mph 75 % 0.00 in 0.0 W/m2 CLR
04:34 26.3 °F 19.5 °F 30.01 in WSW 2.0 mph 3.5 mph 75 % 0.00 in 0.0 W/m2 CLR
04:39 26.4 °F 19.5 °F 30.00 in WSW 2.8 mph 3.5 mph 75 % 0.00 in 0.0 W/m2 CLR
04:44 26.6 °F 19.7 °F 30.00 in SW 2.7 mph 4.6 mph 75 % 0.00 in 0.0 W/m2 CLR
04:49 26.7 °F 19.8 °F 30.00 in SW 1.0 mph 2.3 mph 75 % 0.00 in 0.0 W/m2 CLR
04:54 26.7 °F 19.5 °F 30.01 in SW 2.1 mph 3.5 mph 74 % 0.00 in 0.0 W/m2 CLR
04:59 26.7 °F 19.5 °F 30.01 in WSW 2.5 mph 3.5 mph 74 % 0.00 in 0.0 W/m2 CLR
05:04 26.7 °F 19.5 °F 30.01 in WSW 0.3 mph 2.0 mph 74 % 0.00 in 0.0 W/m2 CLR
05:09 26.7 °F 19.5 °F 30.01 in WSW 0.9 mph 1.0 mph 74 % 0.00 in 0.0 W/m2 CLR
05:14 26.6 °F 19.4 °F 30.01 in Calm     74 % 0.00 in 0.0 W/m2 CLR
05:20 26.4 °F 19.2 °F 30.01 in WSW 0.2 mph 3.5 mph 74 % 0.00 in 0.0 W/m2 CLR
05:25 26.4 °F 19.2 °F 30.02 in Calm     74 % 0.00 in 0.0 W/m2 CLR
05:30 26.1 °F 18.9 °F 30.02 in WSW 1.0 mph 3.5 mph 74 % 0.00 in 0.0 W/m2 CLR
05:35 26.0 °F 19.2 °F 30.02 in WSW 1.0 mph 3.5 mph 75 % 0.00 in 0.0 W/m2 CLR
05:40 26.0 °F 19.2 °F 30.02 in WSW 0.6 mph 1.2 mph 75 % 0.00 in 0.0 W/m2 CLR
05:45 25.8 °F 19.0 °F 30.02 in WSW 1.0 mph 2.3 mph 75 % 0.00 in 0.0 W/m2 CLR
05:50 25.7 °F 19.2 °F 30.02 in WSW 1.0 mph 3.5 mph 76 % 0.00 in 0.0 W/m2 CLR
05:55 25.5 °F 19.0 °F 30.02 in WSW 0.3 mph 2.3 mph 76 % 0.00 in 0.0 W/m2 CLR
06:00 25.6 °F 19.1 °F 30.02 in WSW 0.9 mph 2.3 mph 76 % 0.00 in 0.0 W/m2 CLR
06:05 25.7 °F 19.2 °F 30.03 in WSW 2.0 mph 3.5 mph 76 % 0.00 in 0.0 W/m2 CLR
06:10 25.8 °F 19.3 °F 30.02 in WSW 1.6 mph 3.5 mph 76 % 0.00 in 0.0 W/m2 CLR
06:15 25.9 °F 19.4 °F 30.02 in Calm   1.2 mph 76 % 0.00 in 0.0 W/m2 CLR
06:20 25.9 °F 19.4 °F 30.02 in Calm   1.2 mph 76 % 0.00 in 0.0 W/m2 CLR
06:25 25.8 °F 19.3 °F 30.02 in Calm     76 % 0.00 in 0.0 W/m2 CLR
06:30 25.6 °F 19.1 °F 30.02 in WSW 0.1 mph 1.2 mph 76 % 0.00 in 0.0 W/m2 CLR
06:35 25.5 °F 19.0 °F 30.02 in Calm     76 % 0.00 in 0.0 W/m2 CLR
06:40 25.5 °F 19.0 °F 30.02 in Calm     76 % 0.00 in 0.0 W/m2 CLR
06:45 25.3 °F 18.8 °F 30.02 in Calm     76 % 0.00 in 0.0 W/m2 CLR
06:50 25.3 °F 18.8 °F 30.02 in WSW 0.1 mph 1.2 mph 76 % 0.00 in 0.0 W/m2 CLR
06:55 25.3 °F 18.8 °F 30.02 in Calm     76 % 0.00 in 0.0 W/m2 CLR
07:00 25.1 °F 18.9 °F 30.02 in Calm     77 % 0.00 in 0.0 W/m2 CLR
07:05 25.1 °F 18.9 °F 30.02 in Calm     77 % 0.00 in 5.0 W/m2 CLR
07:10 25.1 °F 18.9 °F 30.02 in WSW 1.0 mph 2.3 mph 77 % 0.00 in 12.0 W/m2 CLR
07:15 25.2 °F 19.0 °F 30.02 in Calm     77 % 0.00 in 18.0 W/m2 CLR
07:20 25.2 °F 19.0 °F 30.02 in WSW 0.2 mph 1.2 mph 77 % 0.00 in 21.0 W/m2 CLR
07:25 25.3 °F 19.1 °F 30.02 in Calm     77 % 0.00 in 28.0 W/m2 CLR
07:30 25.4 °F 19.2 °F 30.02 in WSW 0.4 mph 1.2 mph 77 % 0.00 in 32.0 W/m2 CLR
07:35 25.5 °F 19.3 °F 30.02 in WSW 0.3 mph 2.3 mph 77 % 0.00 in 39.0 W/m2 CLR
07:41 25.7 °F 19.5 °F 30.02 in WSW 0.2 mph 2.3 mph 77 % 0.00 in 44.0 W/m2 CLR
07:46 25.7 °F 19.5 °F 30.02 in WSW 1.0 mph 2.3 mph 77 % 0.00 in 53.0 W/m2 CLR
07:51 25.7 °F 19.5 °F 30.02 in Calm   2.3 mph 77 % 0.00 in 60.0 W/m2 CLR
07:56 25.8 °F 19.6 °F 30.02 in WSW 0.8 mph 2.3 mph 77 % 0.00 in 67.0 W/m2 CLR
08:01 26.0 °F 19.5 °F 30.02 in WSW 0.3 mph 3.5 mph 76 % 0.00 in 69.0 W/m2 FEW
08:06 26.1 °F 19.6 °F 30.02 in WSW 1.8 mph 3.5 mph 76 % 0.00 in 76.0 W/m2 FEW
08:11 26.2 °F 19.7 °F 30.02 in WSW 0.8 mph 3.5 mph 76 % 0.00 in 81.0 W/m2 FEW
08:16 26.3 °F 19.8 °F 30.01 in WSW 1.9 mph 3.0 mph 76 % 0.00 in 88.0 W/m2 FEW
08:21 26.5 °F 20.0 °F 30.01 in WSW 1.3 mph 2.3 mph 76 % 0.00 in 88.0 W/m2 SCT
08:26 26.7 °F 20.1 °F 30.01 in WSW 1.8 mph 4.6 mph 76 % 0.00 in 97.0 W/m2 SCT
08:31 26.9 °F 20.3 °F 30.01 in WSW 0.6 mph 1.2 mph 76 % 0.00 in 104.0 W/m2 SCT
08:36 27.0 °F 20.1 °F 30.01 in WSW 2.8 mph 3.5 mph 75 % 0.00 in 114.0 W/m2 SCT
08:41 27.2 °F 20.3 °F 30.01 in WSW 0.3 mph 2.3 mph 75 % 0.00 in 121.0 W/m2 SCT
08:46 27.2 °F 20.3 °F 30.00 in WSW 1.1 mph 3.5 mph 75 % 0.00 in 123.0 W/m2 SCT
08:51 27.4 °F 20.5 °F 30.00 in WSW 1.7 mph 3.5 mph 75 % 0.00 in 134.0 W/m2 SCT
08:56 27.5 °F 20.6 °F 30.00 in WSW 1.7 mph 3.5 mph 75 % 0.00 in 144.0 W/m2 SCT
09:01 27.7 °F 20.5 °F 30.00 in West 2.1 mph 3.5 mph 74 % 0.00 in 153.0 W/m2 SCT
09:06 27.9 °F 20.4 °F 30.00 in West 1.7 mph 3.5 mph 73 % 0.00 in 155.0 W/m2 SCT
09:11 28.1 °F 20.6 °F 30.00 in West 1.8 mph 3.5 mph 73 % 0.00 in 171.0 W/m2 SCT
09:16 28.3 °F 20.7 °F 29.99 in WSW 3.0 mph 3.5 mph 73 % 0.00 in 174.0 W/m2 SCT
09:21 28.3 °F 20.4 °F 29.99 in WSW 1.5 mph 3.5 mph 72 % 0.00 in 181.0 W/m2 SCT
09:26 28.5 °F 20.6 °F 29.99 in WSW 2.6 mph 3.5 mph 72 % 0.00 in 179.0 W/m2 SCT
09:31 28.6 °F 20.7 °F 29.99 in WSW 2.1 mph 3.5 mph 72 % 0.00 in 186.0 W/m2 SCT
09:36 28.7 °F 20.5 °F 29.98 in Calm     71 % 0.00 in 176.0 W/m2 SCT
09:41 28.9 °F 20.7 °F 29.98 in WSW 1.7 mph 2.3 mph 71 % 0.00 in 179.0 W/m2 SCT
09:46 29.0 °F 20.4 °F 29.98 in WSW 1.6 mph 3.5 mph 70 % 0.00 in 183.0 W/m2 SCT
09:51 29.0 °F 20.4 °F 29.98 in WSW 2.5 mph 3.5 mph 70 % 0.00 in 176.0 W/m2 BKN
09:56 29.4 °F 20.8 °F 29.98 in WSW 1.8 mph 3.5 mph 70 % 0.00 in 185.0 W/m2 SCT
10:01 29.3 °F 20.7 °F 29.98 in WSW 2.0 mph 3.5 mph 70 % 0.00 in 190.0 W/m2 SCT
10:06 29.4 °F 21.2 °F 29.97 in WSW 1.3 mph 3.5 mph 71 % 0.00 in 181.0 W/m2 BKN
10:11 29.5 °F 21.3 °F 29.97 in WSW 2.8 mph 4.0 mph 71 % 0.00 in 188.0 W/m2 BKN
10:16 29.7 °F 21.4 °F 29.97 in WSW 3.0 mph 3.5 mph 71 % 0.00 in 199.0 W/m2 BKN
10:21 29.8 °F 21.2 °F 29.97 in WSW 2.6 mph 4.6 mph 70 % 0.00 in 207.0 W/m2 SCT
10:26 30.0 °F 21.4 °F 29.97 in WSW 1.2 mph 3.5 mph 70 % 0.00 in 211.0 W/m2 SCT
10:31 30.2 °F 21.6 °F 29.97 in SW 1.1 mph 3.5 mph 70 % 0.00 in 214.0 W/m2 BKN
10:36 30.3 °F 21.7 °F 29.98 in SW 2.5 mph 4.6 mph 70 % 0.00 in 232.0 W/m2 SCT
10:42 30.5 °F 21.5 °F 29.97 in SW 2.8 mph 5.0 mph 69 % 0.00 in 253.0 W/m2 SCT
10:47 30.7 °F 21.7 °F 29.97 in WSW 1.5 mph 3.5 mph 69 % 0.00 in 251.0 W/m2 SCT
10:51 31.1 °F 21.8 °F 29.97 in SW 3.2 mph 4.0 mph 68 % 0.00 in 264.0 W/m2 SCT
10:56 31.0 °F 21.7 °F 29.97 in SW 2.5 mph 3.5 mph 68 % 0.00 in 257.0 W/m2 SCT
11:02 31.1 °F 21.8 °F 29.97 in WSW 2.4 mph 3.5 mph 68 % 0.00 in 257.0 W/m2 SCT
11:07 31.5 °F 22.1 °F 29.97 in WSW 1.8 mph 3.5 mph 68 % 0.00 in 258.0 W/m2 SCT
11:12 31.6 °F 21.9 °F 29.97 in WSW 2.4 mph 3.5 mph 67 % 0.00 in 255.0 W/m2 SCT
11:17 31.5 °F 21.8 °F 29.96 in SW 3.8 mph 4.6 mph 67 % 0.00 in 251.0 W/m2 SCT
11:22 31.7 °F 22.0 °F 29.95 in SSW 4.0 mph 5.0 mph 67 % 0.00 in 257.0 W/m2 SCT
11:27 31.8 °F 21.7 °F 29.94 in SW 2.8 mph 3.5 mph 66 % 0.00 in 264.0 W/m2 SCT
11:32 31.9 °F 21.8 °F 29.94 in SW 2.3 mph 3.5 mph 66 % 0.00 in 246.0 W/m2 BKN
11:37 32.1 °F 21.7 °F 29.93 in SW 1.6 mph 3.5 mph 65 % 0.00 in 218.0 W/m2 BKN
11:42 32.3 °F 21.8 °F 29.93 in SW 1.4 mph 3.5 mph 65 % 0.00 in 181.0 W/m2 BKN
11:47 32.3 °F 21.8 °F 29.93 in SW 1.9 mph 3.5 mph 65 % 0.00 in 211.0 W/m2 BKN
11:52 32.7 °F 22.2 °F 29.92 in SW 1.9 mph 3.5 mph 65 % 0.00 in 330.0 W/m2 SCT
11:57 33.4 °F 22.5 °F 29.92 in WSW 3.5 mph 4.6 mph 64 % 0.00 in 424.0 W/m2 CLR
12:02 33.7 °F 22.4 °F 29.92 in WSW 0.3 mph 2.3 mph 63 % 0.00 in 515.0 W/m2 CLR
12:07 34.1 °F 22.8 °F 29.91 in Calm   1.2 mph 63 % 0.00 in 487.0 W/m2 CLR
12:12 34.7 °F 23.0 °F 29.91 in WSW 3.2 mph 4.0 mph 62 % 0.00 in 624.0 W/m2 CLR
12:17 34.9 °F 23.2 °F 29.90 in WSW 0.7 mph 3.5 mph 62 % 0.00 in 543.0 W/m2 CLR
12:22 35.2 °F 23.1 °F 29.90 in SW 2.4 mph 5.8 mph 61 % 0.00 in 432.0 W/m2 CLR
12:27 35.4 °F 23.3 °F 29.90 in SW 3.8 mph 5.8 mph 61 % 0.00 in 461.0 W/m2 CLR
12:32 35.3 °F 23.2 °F 29.90 in SW 2.8 mph 4.6 mph 61 % 0.00 in 617.0 W/m2 CLR
12:37 35.8 °F 23.7 °F 29.89 in West 3.2 mph 4.0 mph 61 % 0.00 in 656.0 W/m2 CLR
12:42 36.1 °F 23.5 °F 29.89 in WSW 2.8 mph 4.6 mph 60 % 0.00 in 652.0 W/m2 CLR
12:47 36.6 °F 24.0 °F 29.89 in SW 1.6 mph 3.5 mph 60 % 0.00 in 652.0 W/m2 CLR
12:52 36.7 °F 24.1 °F 29.88 in SW 4.3 mph 6.9 mph 60 % 0.00 in 640.0 W/m2 CLR
12:57 37.0 °F 24.4 °F 29.88 in WSW 4.5 mph 7.0 mph 60 % 0.00 in 635.0 W/m2 CLR
13:02 37.4 °F 24.8 °F 29.88 in West 5.3 mph 7.0 mph 60 % 0.00 in 635.0 W/m2 CLR
13:07 37.7 °F 24.6 °F 29.87 in WSW 5.0 mph 10.4 mph 59 % 0.00 in 629.0 W/m2 CLR
13:12 38.4 °F 24.9 °F 29.86 in West 5.2 mph 9.2 mph 58 % 0.00 in 624.0 W/m2 CLR
13:17 38.1 °F 24.6 °F 29.86 in South 4.6 mph 8.1 mph 58 % 0.00 in 605.0 W/m2 CLR
13:22 38.2 °F 24.7 °F 29.86 in West 6.9 mph 9.2 mph 58 % 0.00 in 594.0 W/m2 CLR
13:27 38.5 °F 25.0 °F 29.86 in WSW 4.7 mph 8.1 mph 58 % 0.00 in 601.0 W/m2 CLR
13:32 39.2 °F 25.6 °F 29.85 in WSW 2.5 mph 5.8 mph 58 % 0.00 in 594.0 W/m2 CLR
13:37 39.2 °F 25.2 °F 29.85 in WSW 2.9 mph 9.2 mph 57 % 0.00 in 589.0 W/m2 CLR
13:42 39.3 °F 25.3 °F 29.85 in SW 1.5 mph 3.5 mph 57 % 0.00 in 584.0 W/m2 CLR
13:47 39.4 °F 25.0 °F 29.84 in SSW 4.3 mph 8.1 mph 56 % 0.00 in 580.0 W/m2 CLR
13:48 39.3 °F 24.9 °F 29.84 in West 3.4 mph 9.0 mph 56 % 0.00 in 561.0 W/m2 CLR
13:53 39.6 °F 25.2 °F 29.84 in SW 4.7 mph 9.2 mph 56 % 0.00 in 550.0 W/m2 CLR
13:58 39.4 °F 25.0 °F 29.83 in SW 5.1 mph 6.9 mph 56 % 0.00 in 519.0 W/m2 CLR
14:03 39.9 °F 25.9 °F 29.83 in West 2.1 mph 4.0 mph 57 % 0.00 in 552.0 W/m2 CLR
14:08 40.4 °F 25.9 °F 29.83 in WSW 5.1 mph 8.1 mph 56 % 0.00 in 533.0 W/m2 CLR
14:13 40.1 °F 25.6 °F 29.82 in SSW 6.5 mph 9.2 mph 56 % 0.00 in 520.0 W/m2 CLR
14:18 40.9 °F 26.4 °F 29.82 in SW 3.2 mph 8.1 mph 56 % 0.00 in 513.0 W/m2 CLR
14:23 41.3 °F 26.3 °F 29.82 in SW 6.4 mph 10.4 mph 55 % 0.00 in 504.0 W/m2 CLR
14:28 41.7 °F 26.7 °F 29.82 in WSW 4.2 mph 9.2 mph 55 % 0.00 in 485.0 W/m2 CLR
14:33 42.0 °F 26.5 °F 29.82 in SW 5.1 mph 6.9 mph 54 % 0.00 in 483.0 W/m2 CLR
14:38 42.1 °F 26.6 °F 29.81 in West 6.0 mph 11.5 mph 54 % 0.00 in 473.0 W/m2 CLR
14:43 42.4 °F 26.5 °F 29.81 in WSW 3.7 mph 12.0 mph 53 % 0.00 in 459.0 W/m2 CLR
14:48 42.2 °F 25.8 °F 29.81 in West 5.3 mph 8.1 mph 52 % 0.00 in 448.0 W/m2 CLR
14:53 42.2 °F 26.3 °F 29.81 in WSW 5.4 mph 8.1 mph 53 % 0.00 in 434.0 W/m2 CLR
14:58 42.3 °F 26.4 °F 29.81 in WSW 6.2 mph 11.5 mph 53 % 0.00 in 420.0 W/m2 CLR
15:03 42.5 °F 26.6 °F 29.81 in WSW 4.7 mph 9.2 mph 53 % 0.00 in 406.0 W/m2 CLR
15:08 42.8 °F 26.8 °F 29.81 in WSW 6.1 mph 11.5 mph 53 % 0.00 in 388.0 W/m2 CLR
15:13 42.8 °F 26.4 °F 29.81 in WSW 8.7 mph 12.7 mph 52 % 0.00 in 376.0 W/m2 CLR
15:18 42.9 °F 26.9 °F 29.81 in West 9.3 mph 12.7 mph 53 % 0.00 in 364.0 W/m2 CLR
15:23 42.9 °F 26.9 °F 29.80 in WSW 8.3 mph 12.0 mph 53 % 0.00 in 348.0 W/m2 CLR
15:28 42.8 °F 26.8 °F 29.80 in WSW 5.2 mph 10.4 mph 53 % 0.00 in 332.0 W/m2 CLR
15:33 43.0 °F 26.6 °F 29.80 in West 4.1 mph 9.2 mph 52 % 0.00 in 316.0 W/m2 CLR
15:38 43.3 °F 27.3 °F 29.80 in WSW 5.3 mph 8.1 mph 53 % 0.00 in 301.0 W/m2 CLR
15:44 43.4 °F 26.9 °F 29.80 in WSW 4.5 mph 9.0 mph 52 % 0.00 in 287.0 W/m2 CLR
15:49 43.4 °F 27.4 °F 29.80 in WSW 4.3 mph 9.2 mph 53 % 0.00 in 269.0 W/m2 CLR
15:54 43.3 °F 26.8 °F 29.80 in SSW 5.2 mph 9.2 mph 52 % 0.00 in 255.0 W/m2 CLR
15:59 43.1 °F 26.7 °F 29.80 in SW 4.9 mph 8.1 mph 52 % 0.00 in 234.0 W/m2 CLR
16:04 43.4 °F 26.9 °F 29.79 in SW 2.6 mph 4.0 mph 52 % 0.00 in 216.0 W/m2 CLR
16:09 43.3 °F 26.4 °F 29.79 in WSW 3.0 mph 5.8 mph 51 % 0.00 in 195.0 W/m2 CLR
16:14 43.5 °F 27.0 °F 29.79 in WSW 4.2 mph 8.1 mph 52 % 0.00 in 179.0 W/m2 CLR
16:19 43.6 °F 27.1 °F 29.79 in SSW 5.7 mph 8.1 mph 52 % 0.00 in 160.0 W/m2 CLR
16:24 43.5 °F 27.0 °F 29.79 in SSW 3.7 mph 9.0 mph 52 % 0.00 in 141.0 W/m2 CLR
16:29 43.4 °F 26.9 °F 29.78 in SSW 1.9 mph 3.5 mph 52 % 0.00 in 121.0 W/m2 CLR
16:34 43.3 °F 26.8 °F 29.78 in South 3.7 mph 6.0 mph 52 % 0.00 in 107.0 W/m2 CLR
16:39 43.3 °F 26.8 °F 29.78 in SW 2.3 mph 3.5 mph 52 % 0.00 in 91.0 W/m2 CLR
16:44 43.3 °F 26.8 °F 29.78 in SSW 4.5 mph 6.9 mph 52 % 0.00 in 74.0 W/m2 FEW
16:49 43.2 °F 26.7 °F 29.77 in SSW 3.7 mph 5.8 mph 52 % 0.00 in 62.0 W/m2 FEW
16:54 43.2 °F 26.7 °F 29.77 in SSW 4.3 mph 5.8 mph 52 % 0.00 in 49.0 W/m2 FEW
16:59 43.2 °F 26.7 °F 29.77 in SSW 4.6 mph 8.1 mph 52 % 0.00 in 37.0 W/m2 SCT
17:04 43.1 °F 26.7 °F 29.77 in SSW 4.7 mph 8.1 mph 52 % 0.00 in 25.0 W/m2 BKN
17:09 42.9 °F 26.5 °F 29.77 in SW 4.7 mph 6.9 mph 52 % 0.00 in 19.0 W/m2 SCT
17:14 42.8 °F 26.4 °F 29.77 in SSW 3.0 mph 5.8 mph 52 % 0.00 in 18.0 W/m2 SCT
17:19 42.6 °F 26.2 °F 29.77 in SW 2.6 mph 4.0 mph 52 % 0.00 in 14.0 W/m2 SCT
17:24 42.5 °F 26.1 °F 29.77 in SSW 3.0 mph 4.6 mph 52 % 0.00 in 11.0 W/m2 FEW
17:29 42.3 °F 26.4 °F 29.78 in SSW 3.9 mph 5.8 mph 53 % 0.00 in 7.0 W/m2 CLR
17:34 42.1 °F 26.2 °F 29.78 in SW 2.5 mph 5.0 mph 53 % 0.00 in 5.0 W/m2 CLR
17:39 41.8 °F 25.9 °F 29.78 in SSW 2.7 mph 5.8 mph 53 % 0.00 in 0.0 W/m2 CLR
17:44 41.5 °F 26.1 °F 29.78 in South 3.0 mph 5.0 mph 54 % 0.00 in 0.0 W/m2 CLR
17:49 41.2 °F 25.8 °F 29.78 in SSW 3.7 mph 6.0 mph 54 % 0.00 in 0.0 W/m2 CLR
17:54 41.0 °F 26.1 °F 29.78 in SSW 2.8 mph 4.6 mph 55 % 0.00 in 0.0 W/m2 CLR
17:59 40.7 °F 25.8 °F 29.78 in SSW 3.6 mph 5.8 mph 55 % 0.00 in 0.0 W/m2 CLR
18:04 40.7 °F 26.2 °F 29.79 in SSW 3.6 mph 6.0 mph 56 % 0.00 in 0.0 W/m2 CLR
18:09 40.6 °F 26.1 °F 29.79 in SSW 4.4 mph 8.1 mph 56 % 0.00 in 0.0 W/m2 CLR
18:14 40.6 °F 26.5 °F 29.79 in SSW 5.3 mph 5.8 mph 57 % 0.00 in 0.0 W/m2 CLR
18:19 40.4 °F 26.4 °F 29.79 in SSW 4.4 mph 5.8 mph 57 % 0.00 in 0.0 W/m2 CLR
18:24 40.1 °F 26.5 °F 29.79 in SSW 2.0 mph 3.5 mph 58 % 0.00 in 0.0 W/m2 CLR
18:29 39.8 °F 26.6 °F 29.79 in SW 3.1 mph 3.5 mph 59 % 0.00 in 0.0 W/m2 CLR
18:34 39.6 °F 26.4 °F 29.79 in South 4.4 mph 4.6 mph 59 % 0.00 in 0.0 W/m2 CLR
18:39 39.4 °F 26.2 °F 29.79 in South 2.9 mph 3.5 mph 59 % 0.00 in 0.0 W/m2 CLR
18:45 39.2 °F 26.5 °F 29.79 in SSW 1.9 mph 4.6 mph 60 % 0.00 in 0.0 W/m2 CLR
18:50 38.9 °F 26.6 °F 29.79 in SSW 2.3 mph 4.0 mph 61 % 0.00 in 0.0 W/m2 CLR
18:55 38.8 °F 26.5 °F 29.78 in South 2.0 mph 5.0 mph 61 % 0.00 in 0.0 W/m2 CLR
19:00 38.8 °F 26.5 °F 29.78 in South 2.4 mph 3.5 mph 61 % 0.00 in 0.0 W/m2 CLR
19:05 38.6 °F 26.7 °F 29.78 in Calm   4.0 mph 62 % 0.00 in 0.0 W/m2 CLR
19:10 38.5 °F 26.6 °F 29.77 in Calm   3.0 mph 62 % 0.00 in 0.0 W/m2 CLR
19:15 38.3 °F 26.8 °F 29.77 in South 0.1 mph 2.3 mph 63 % 0.00 in 0.0 W/m2 CLR
19:20 38.3 °F 26.8 °F 29.77 in South 1.0 mph 4.0 mph 63 % 0.00 in 0.0 W/m2 CLR
19:25 38.3 °F 26.8 °F 29.76 in South 2.3 mph 3.5 mph 63 % 0.00 in 0.0 W/m2 CLR
19:30 38.1 °F 27.0 °F 29.77 in SSW 1.1 mph 2.3 mph 64 % 0.00 in 0.0 W/m2 CLR
19:35 38.0 °F 27.3 °F 29.77 in Calm     65 % 0.00 in 0.0 W/m2 CLR
19:40 37.8 °F 27.1 °F 29.77 in Calm     65 % 0.00 in 0.0 W/m2 CLR
19:45 37.7 °F 27.0 °F 29.77 in Calm     65 % 0.00 in 0.0 W/m2 CLR
19:50 37.3 °F 27.0 °F 29.77 in Calm     66 % 0.00 in 0.0 W/m2 CLR
19:55 36.8 °F 26.9 °F 29.77 in Calm     67 % 0.00 in 0.0 W/m2 CLR
20:00 36.2 °F 26.6 °F 29.77 in Calm     68 % 0.00 in 0.0 W/m2 CLR
20:05 35.8 °F 26.3 °F 29.77 in Calm     68 % 0.00 in 0.0 W/m2 CLR
20:10 35.3 °F 26.5 °F 29.77 in Calm     70 % 0.00 in 0.0 W/m2 CLR
20:15 35.0 °F 26.5 °F 29.78 in Calm     71 % 0.00 in 0.0 W/m2 CLR
20:20 35.5 °F 27.0 °F 29.77 in Calm     71 % 0.00 in 0.0 W/m2 CLR
20:25 35.6 °F 26.8 °F 29.77 in Calm     70 % 0.00 in 0.0 W/m2 CLR
20:30 35.4 °F 26.9 °F 29.77 in Calm     71 % 0.00 in 0.0 W/m2 CLR
20:35 36.0 °F 27.5 °F 29.77 in Calm     71 % 0.00 in 0.0 W/m2 CLR
20:40 36.0 °F 27.2 °F 29.77 in Calm     70 % 0.00 in 0.0 W/m2 CLR
20:45 35.6 °F 27.1 °F 29.77 in Calm     71 % 0.00 in 0.0 W/m2 CLR
20:55 34.2 °F 26.1 °F 29.77 in Calm     72 % 0.00 in 0.0 W/m2 CLR
21:00 33.8 °F 26.1 °F 29.76 in Calm     73 % 0.00 in 0.0 W/m2 CLR
21:05 33.8 °F 26.1 °F 29.77 in WSW 2.2 mph 3.5 mph 73 % 0.00 in 0.0 W/m2 CLR
21:10 33.0 °F 25.3 °F 29.77 in Calm     73 % 0.00 in 0.0 W/m2 CLR
21:15 33.1 °F 26.0 °F 29.77 in Calm     75 % 0.00 in 0.0 W/m2 CLR
21:20 32.9 °F 25.8 °F 29.77 in Calm     75 % 0.00 in 0.0 W/m2 CLR
21:25 33.2 °F 26.1 °F 29.76 in Calm     75 % 0.00 in 0.0 W/m2 CLR
21:30 32.5 °F 25.5 °F 29.76 in Calm     75 % 0.00 in 0.0 W/m2 CLR
21:35 32.0 °F 25.3 °F 29.76 in Calm     76 % 0.00 in 0.0 W/m2 CLR
21:40 31.5 °F 25.1 °F 29.76 in Calm     77 % 0.00 in 0.0 W/m2 CLR
21:50 31.4 °F 25.6 °F 29.75 in Calm     79 % 0.00 in 0.0 W/m2 CLR
21:55 31.3 °F 25.5 °F 29.75 in Calm     79 % 0.00 in 0.0 W/m2 CLR
22:00 31.2 °F 25.4 °F 29.75 in Calm     79 % 0.00 in 0.0 W/m2 CLR
22:05 31.2 °F 25.7 °F 29.75 in Calm     80 % 0.00 in 0.0 W/m2 CLR
22:10 31.3 °F 25.8 °F 29.75 in Calm     80 % 0.00 in 0.0 W/m2 CLR
22:15 31.3 °F 25.8 °F 29.75 in Calm     80 % 0.00 in 0.0 W/m2 CLR
22:20 31.3 °F 25.8 °F 29.74 in Calm     80 % 0.00 in 0.0 W/m2 CLR
22:25 31.3 °F 25.8 °F 29.74 in Calm     80 % 0.00 in 0.0 W/m2 CLR
22:30 31.1 °F 25.7 °F 29.74 in Calm     80 % 0.00 in 0.0 W/m2 CLR
22:35 31.3 °F 25.8 °F 29.74 in Calm     80 % 0.00 in 0.0 W/m2 CLR
22:40 31.1 °F 25.7 °F 29.74 in Calm     80 % 0.00 in 0.0 W/m2 CLR
22:45 31.1 °F 26.0 °F 29.73 in Calm     81 % 0.00 in 0.0 W/m2 CLR
22:50 30.8 °F 25.7 °F 29.73 in Calm     81 % 0.00 in 0.0 W/m2 CLR
22:55 30.3 °F 25.2 °F 29.73 in Calm     81 % 0.00 in 0.0 W/m2 CLR
23:01 30.4 °F 25.6 °F 29.73 in Calm     82 % 0.00 in 0.0 W/m2 CLR
23:06 30.3 °F 25.5 °F 29.73 in Calm     82 % 0.00 in 0.0 W/m2 CLR
23:11 30.4 °F 25.6 °F 29.73 in Calm     82 % 0.00 in 0.0 W/m2 CLR
23:16 30.3 °F 25.5 °F 29.72 in Calm     82 % 0.00 in 0.0 W/m2 CLR
23:21 30.0 °F 25.2 °F 29.72 in Calm     82 % 0.00 in 0.0 W/m2 CLR
23:26 30.0 °F 25.2 °F 29.72 in Calm     82 % 0.00 in 0.0 W/m2 CLR
23:31 29.9 °F 25.1 °F 29.72 in Calm     82 % 0.00 in 0.0 W/m2 CLR
23:36 30.0 °F 25.5 °F 29.71 in Calm     83 % 0.00 in 0.0 W/m2 CLR
23:41 30.1 °F 25.6 °F 29.71 in Calm     83 % 0.00 in 0.0 W/m2 CLR
23:46 30.2 °F 25.7 °F 29.71 in Calm     83 % 0.00 in 0.0 W/m2 CLR
23:51 29.9 °F 25.4 °F 29.71 in Calm     83 % 0.00 in 0.0 W/m2 CLR
23:56 29.8 °F 25.3 °F 29.71 in Calm     83 % 0.00 in 0.0 W/m2 CLR
Air Products Campus Weather
Compliments of Weather Underground - 3.5 mb